sensor_id;sensor_type;location;lat;lon;timestamp;P1;durP1;ratioP1;P2;durP2;ratioP2
72301;SDS011;60235;52.234;5.186;2023-04-07T00:00:19;23.95;;;6.05;;
72301;SDS011;60235;52.234;5.186;2023-04-07T00:02:45;17.45;;;6.22;;
72301;SDS011;60235;52.234;5.186;2023-04-07T00:05:12;18.73;;;6.30;;
72301;SDS011;60235;52.234;5.186;2023-04-07T00:07:39;21.83;;;6.65;;
72301;SDS011;60235;52.234;5.186;2023-04-07T00:10:05;20.20;;;6.63;;
72301;SDS011;60235;52.234;5.186;2023-04-07T00:12:32;22.40;;;7.28;;
72301;SDS011;60235;52.234;5.186;2023-04-07T00:14:58;20.00;;;6.72;;
72301;SDS011;60235;52.234;5.186;2023-04-07T00:17:24;19.10;;;6.45;;
72301;SDS011;60235;52.234;5.186;2023-04-07T00:19:50;16.35;;;5.82;;
72301;SDS011;60235;52.234;5.186;2023-04-07T00:22:16;17.65;;;5.97;;
72301;SDS011;60235;52.234;5.186;2023-04-07T00:24:42;21.13;;;5.75;;
72301;SDS011;60235;52.234;5.186;2023-04-07T00:27:08;18.98;;;6.28;;
72301;SDS011;60235;52.234;5.186;2023-04-07T00:29:34;17.63;;;5.57;;
72301;SDS011;60235;52.234;5.186;2023-04-07T00:32:00;17.30;;;6.38;;
72301;SDS011;60235;52.234;5.186;2023-04-07T00:34:26;17.98;;;6.50;;
72301;SDS011;60235;52.234;5.186;2023-04-07T00:36:52;24.20;;;6.72;;
72301;SDS011;60235;52.234;5.186;2023-04-07T00:39:19;17.38;;;6.63;;
72301;SDS011;60235;52.234;5.186;2023-04-07T00:41:45;21.63;;;6.85;;
72301;SDS011;60235;52.234;5.186;2023-04-07T00:44:11;20.48;;;7.20;;
72301;SDS011;60235;52.234;5.186;2023-04-07T00:46:38;19.20;;;6.80;;
72301;SDS011;60235;52.234;5.186;2023-04-07T00:49:04;18.38;;;7.05;;
72301;SDS011;60235;52.234;5.186;2023-04-07T00:51:31;29.63;;;7.82;;
72301;SDS011;60235;52.234;5.186;2023-04-07T00:53:57;21.17;;;7.70;;
72301;SDS011;60235;52.234;5.186;2023-04-07T00:56:23;21.52;;;7.22;;
72301;SDS011;60235;52.234;5.186;2023-04-07T00:58:49;18.80;;;7.85;;
72301;SDS011;60235;52.234;5.186;2023-04-07T01:01:22;22.85;;;7.50;;
72301;SDS011;60235;52.234;5.186;2023-04-07T01:04:08;23.90;;;8.05;;
72301;SDS011;60235;52.234;5.186;2023-04-07T01:06:35;20.02;;;7.20;;
72301;SDS011;60235;52.234;5.186;2023-04-07T01:09:04;25.30;;;8.32;;
72301;SDS011;60235;52.234;5.186;2023-04-07T01:14:01;24.83;;;8.45;;
72301;SDS011;60235;52.234;5.186;2023-04-07T01:16:33;27.80;;;8.57;;
72301;SDS011;60235;52.234;5.186;2023-04-07T01:19:03;25.80;;;8.85;;
72301;SDS011;60235;52.234;5.186;2023-04-07T01:21:32;26.70;;;9.18;;
72301;SDS011;60235;52.234;5.186;2023-04-07T01:26:43;25.27;;;7.90;;
72301;SDS011;60235;52.234;5.186;2023-04-07T01:31:41;21.45;;;7.97;;
72301;SDS011;60235;52.234;5.186;2023-04-07T01:34:08;26.83;;;7.78;;
72301;SDS011;60235;52.234;5.186;2023-04-07T01:36:35;24.75;;;7.15;;
72301;SDS011;60235;52.234;5.186;2023-04-07T01:39:01;22.70;;;7.53;;
72301;SDS011;60235;52.234;5.186;2023-04-07T01:41:27;19.55;;;7.38;;
72301;SDS011;60235;52.234;5.186;2023-04-07T01:43:54;21.67;;;7.80;;
72301;SDS011;60235;52.234;5.186;2023-04-07T01:46:20;22.65;;;7.22;;
72301;SDS011;60235;52.234;5.186;2023-04-07T01:48:47;26.58;;;7.93;;
72301;SDS011;60235;52.234;5.186;2023-04-07T01:51:13;23.40;;;6.93;;
72301;SDS011;60235;52.234;5.186;2023-04-07T01:53:42;21.42;;;7.38;;
72301;SDS011;60235;52.234;5.186;2023-04-07T01:56:08;18.45;;;7.05;;
72301;SDS011;60235;52.234;5.186;2023-04-07T01:58:35;18.08;;;7.05;;
72301;SDS011;60235;52.234;5.186;2023-04-07T02:01:01;18.63;;;6.53;;
72301;SDS011;60235;52.234;5.186;2023-04-07T02:03:29;20.50;;;7.20;;
72301;SDS011;60235;52.234;5.186;2023-04-07T02:05:56;17.75;;;7.80;;
72301;SDS011;60235;52.234;5.186;2023-04-07T02:10:51;16.42;;;6.35;;
72301;SDS011;60235;52.234;5.186;2023-04-07T02:13:17;21.20;;;6.70;;
72301;SDS011;60235;52.234;5.186;2023-04-07T02:15:45;22.50;;;6.70;;
72301;SDS011;60235;52.234;5.186;2023-04-07T02:18:12;19.58;;;6.97;;
72301;SDS011;60235;52.234;5.186;2023-04-07T02:20:39;16.20;;;5.97;;
72301;SDS011;60235;52.234;5.186;2023-04-07T02:23:09;15.98;;;5.82;;
72301;SDS011;60235;52.234;5.186;2023-04-07T02:25:35;24.35;;;6.53;;
72301;SDS011;60235;52.234;5.186;2023-04-07T02:28:04;24.48;;;6.47;;
72301;SDS011;60235;52.234;5.186;2023-04-07T02:30:31;20.35;;;5.82;;
72301;SDS011;60235;52.234;5.186;2023-04-07T02:32:57;19.92;;;5.82;;
72301;SDS011;60235;52.234;5.186;2023-04-07T02:35:23;17.48;;;5.60;;
72301;SDS011;60235;52.234;5.186;2023-04-07T02:37:49;26.05;;;6.60;;
72301;SDS011;60235;52.234;5.186;2023-04-07T02:40:15;24.05;;;5.95;;
72301;SDS011;60235;52.234;5.186;2023-04-07T02:42:42;19.45;;;5.50;;
72301;SDS011;60235;52.234;5.186;2023-04-07T02:45:08;21.20;;;5.38;;
72301;SDS011;60235;52.234;5.186;2023-04-07T02:47:35;18.75;;;5.25;;
72301;SDS011;60235;52.234;5.186;2023-04-07T02:50:01;22.25;;;4.75;;
72301;SDS011;60235;52.234;5.186;2023-04-07T02:52:27;20.55;;;5.50;;
72301;SDS011;60235;52.234;5.186;2023-04-07T02:54:53;20.50;;;4.88;;
72301;SDS011;60235;52.234;5.186;2023-04-07T02:57:19;15.70;;;4.68;;
72301;SDS011;60235;52.234;5.186;2023-04-07T02:59:45;20.08;;;5.00;;
72301;SDS011;60235;52.234;5.186;2023-04-07T03:02:11;18.88;;;4.88;;
72301;SDS011;60235;52.234;5.186;2023-04-07T03:04:37;17.70;;;4.90;;
72301;SDS011;60235;52.234;5.186;2023-04-07T03:07:03;19.77;;;4.78;;
72301;SDS011;60235;52.234;5.186;2023-04-07T03:09:29;20.65;;;4.82;;
72301;SDS011;60235;52.234;5.186;2023-04-07T03:11:55;21.05;;;5.38;;
72301;SDS011;60235;52.234;5.186;2023-04-07T03:14:22;18.95;;;5.30;;
72301;SDS011;60235;52.234;5.186;2023-04-07T03:16:48;19.23;;;5.00;;
72301;SDS011;60235;52.234;5.186;2023-04-07T03:19:14;13.75;;;5.25;;
72301;SDS011;60235;52.234;5.186;2023-04-07T03:21:40;20.58;;;6.50;;
72301;SDS011;60235;52.234;5.186;2023-04-07T03:24:06;18.02;;;5.05;;
72301;SDS011;60235;52.234;5.186;2023-04-07T03:26:32;20.35;;;5.00;;
72301;SDS011;60235;52.234;5.186;2023-04-07T03:28:58;16.90;;;5.90;;
72301;SDS011;60235;52.234;5.186;2023-04-07T03:31:25;23.60;;;5.10;;
72301;SDS011;60235;52.234;5.186;2023-04-07T03:33:51;13.90;;;4.80;;
72301;SDS011;60235;52.234;5.186;2023-04-07T03:36:17;24.75;;;5.40;;
72301;SDS011;60235;52.234;5.186;2023-04-07T03:38:43;21.25;;;5.30;;
72301;SDS011;60235;52.234;5.186;2023-04-07T03:41:09;18.45;;;5.72;;
72301;SDS011;60235;52.234;5.186;2023-04-07T03:43:35;16.23;;;5.60;;
72301;SDS011;60235;52.234;5.186;2023-04-07T03:46:01;15.38;;;5.57;;
72301;SDS011;60235;52.234;5.186;2023-04-07T03:48:27;21.00;;;6.38;;
72301;SDS011;60235;52.234;5.186;2023-04-07T03:50:53;22.38;;;5.68;;
72301;SDS011;60235;52.234;5.186;2023-04-07T03:53:19;15.32;;;5.43;;
72301;SDS011;60235;52.234;5.186;2023-04-07T03:55:45;16.65;;;5.70;;
72301;SDS011;60235;52.234;5.186;2023-04-07T03:58:11;16.90;;;5.65;;
72301;SDS011;60235;52.234;5.186;2023-04-07T04:00:38;21.60;;;5.93;;
72301;SDS011;60235;52.234;5.186;2023-04-07T04:03:04;25.83;;;6.63;;
72301;SDS011;60235;52.234;5.186;2023-04-07T04:05:30;19.88;;;5.93;;
72301;SDS011;60235;52.234;5.186;2023-04-07T04:07:56;16.23;;;5.55;;
72301;SDS011;60235;52.234;5.186;2023-04-07T04:10:22;15.15;;;4.80;;
72301;SDS011;60235;52.234;5.186;2023-04-07T04:12:48;25.50;;;5.22;;
72301;SDS011;60235;52.234;5.186;2023-04-07T04:15:14;11.68;;;4.65;;
72301;SDS011;60235;52.234;5.186;2023-04-07T04:17:41;13.75;;;4.28;;
72301;SDS011;60235;52.234;5.186;2023-04-07T04:20:07;13.05;;;4.28;;
72301;SDS011;60235;52.234;5.186;2023-04-07T04:22:33;13.57;;;3.53;;
72301;SDS011;60235;52.234;5.186;2023-04-07T04:25:00;12.85;;;3.70;;
72301;SDS011;60235;52.234;5.186;2023-04-07T04:27:26;11.68;;;3.67;;
72301;SDS011;60235;52.234;5.186;2023-04-07T04:29:52;11.63;;;3.20;;
72301;SDS011;60235;52.234;5.186;2023-04-07T04:32:19;11.15;;;3.15;;
72301;SDS011;60235;52.234;5.186;2023-04-07T04:34:45;10.90;;;3.65;;
72301;SDS011;60235;52.234;5.186;2023-04-07T04:37:11;8.77;;;3.45;;
72301;SDS011;60235;52.234;5.186;2023-04-07T04:39:37;12.75;;;3.70;;
72301;SDS011;60235;52.234;5.186;2023-04-07T04:42:04;16.92;;;3.90;;
72301;SDS011;60235;52.234;5.186;2023-04-07T04:44:30;12.27;;;3.97;;
72301;SDS011;60235;52.234;5.186;2023-04-07T04:46:56;15.85;;;3.50;;
72301;SDS011;60235;52.234;5.186;2023-04-07T04:49:22;15.20;;;3.63;;
72301;SDS011;60235;52.234;5.186;2023-04-07T04:51:48;11.35;;;3.10;;
72301;SDS011;60235;52.234;5.186;2023-04-07T04:54:15;8.27;;;2.75;;
72301;SDS011;60235;52.234;5.186;2023-04-07T04:56:41;11.13;;;3.03;;
72301;SDS011;60235;52.234;5.186;2023-04-07T04:59:07;10.18;;;2.83;;
72301;SDS011;60235;52.234;5.186;2023-04-07T05:01:33;11.82;;;2.90;;
72301;SDS011;60235;52.234;5.186;2023-04-07T05:03:59;10.90;;;2.78;;
72301;SDS011;60235;52.234;5.186;2023-04-07T05:06:25;12.18;;;2.80;;
72301;SDS011;60235;52.234;5.186;2023-04-07T05:08:51;9.07;;;2.55;;
72301;SDS011;60235;52.234;5.186;2023-04-07T05:11:18;13.63;;;3.15;;
72301;SDS011;60235;52.234;5.186;2023-04-07T05:13:45;10.65;;;3.15;;
72301;SDS011;60235;52.234;5.186;2023-04-07T05:16:11;10.20;;;2.78;;
72301;SDS011;60235;52.234;5.186;2023-04-07T05:18:37;9.13;;;2.67;;
72301;SDS011;60235;52.234;5.186;2023-04-07T05:21:03;11.85;;;3.35;;
72301;SDS011;60235;52.234;5.186;2023-04-07T05:23:29;11.27;;;3.03;;
72301;SDS011;60235;52.234;5.186;2023-04-07T05:25:55;10.63;;;3.13;;
72301;SDS011;60235;52.234;5.186;2023-04-07T05:28:21;13.85;;;3.70;;
72301;SDS011;60235;52.234;5.186;2023-04-07T05:30:48;10.25;;;3.03;;
72301;SDS011;60235;52.234;5.186;2023-04-07T05:33:14;11.00;;;3.28;;
72301;SDS011;60235;52.234;5.186;2023-04-07T05:35:40;11.30;;;3.35;;
72301;SDS011;60235;52.234;5.186;2023-04-07T05:38:06;14.85;;;3.72;;
72301;SDS011;60235;52.234;5.186;2023-04-07T05:40:32;12.82;;;3.08;;
72301;SDS011;60235;52.234;5.186;2023-04-07T05:42:58;11.05;;;2.95;;
72301;SDS011;60235;52.234;5.186;2023-04-07T05:45:24;11.38;;;3.60;;
72301;SDS011;60235;52.234;5.186;2023-04-07T05:47:50;11.55;;;3.20;;
72301;SDS011;60235;52.234;5.186;2023-04-07T05:50:16;14.52;;;3.10;;
72301;SDS011;60235;52.234;5.186;2023-04-07T05:52:42;14.15;;;3.53;;
72301;SDS011;60235;52.234;5.186;2023-04-07T05:55:08;14.40;;;3.83;;
72301;SDS011;60235;52.234;5.186;2023-04-07T05:57:35;10.40;;;3.45;;
72301;SDS011;60235;52.234;5.186;2023-04-07T06:00:01;10.82;;;3.53;;
72301;SDS011;60235;52.234;5.186;2023-04-07T06:02:27;12.52;;;3.47;;
72301;SDS011;60235;52.234;5.186;2023-04-07T06:04:53;13.55;;;3.38;;
72301;SDS011;60235;52.234;5.186;2023-04-07T06:07:20;8.77;;;3.35;;
72301;SDS011;60235;52.234;5.186;2023-04-07T06:09:46;9.95;;;2.97;;
72301;SDS011;60235;52.234;5.186;2023-04-07T06:12:12;13.15;;;3.40;;
72301;SDS011;60235;52.234;5.186;2023-04-07T06:14:39;12.00;;;3.42;;
72301;SDS011;60235;52.234;5.186;2023-04-07T06:17:05;12.10;;;3.58;;
72301;SDS011;60235;52.234;5.186;2023-04-07T06:19:31;12.10;;;4.30;;
72301;SDS011;60235;52.234;5.186;2023-04-07T06:21:57;16.15;;;3.83;;
72301;SDS011;60235;52.234;5.186;2023-04-07T06:24:23;14.45;;;4.90;;
72301;SDS011;60235;52.234;5.186;2023-04-07T06:26:53;15.40;;;3.90;;
72301;SDS011;60235;52.234;5.186;2023-04-07T06:29:20;16.20;;;4.35;;
72301;SDS011;60235;52.234;5.186;2023-04-07T06:31:46;14.52;;;4.85;;
72301;SDS011;60235;52.234;5.186;2023-04-07T06:34:12;13.27;;;4.78;;
72301;SDS011;60235;52.234;5.186;2023-04-07T06:36:38;16.38;;;4.10;;
72301;SDS011;60235;52.234;5.186;2023-04-07T06:39:05;16.83;;;4.55;;
72301;SDS011;60235;52.234;5.186;2023-04-07T06:41:31;15.75;;;3.97;;
72301;SDS011;60235;52.234;5.186;2023-04-07T06:43:57;16.42;;;4.43;;
72301;SDS011;60235;52.234;5.186;2023-04-07T06:46:23;15.50;;;4.30;;
72301;SDS011;60235;52.234;5.186;2023-04-07T06:48:51;10.80;;;4.32;;
72301;SDS011;60235;52.234;5.186;2023-04-07T06:51:17;14.52;;;4.18;;
72301;SDS011;60235;52.234;5.186;2023-04-07T06:53:42;22.63;;;4.53;;
72301;SDS011;60235;52.234;5.186;2023-04-07T06:56:09;13.43;;;3.65;;
72301;SDS011;60235;52.234;5.186;2023-04-07T06:58:36;13.18;;;3.97;;
72301;SDS011;60235;52.234;5.186;2023-04-07T07:01:02;13.60;;;3.78;;
72301;SDS011;60235;52.234;5.186;2023-04-07T07:03:28;11.38;;;3.15;;
72301;SDS011;60235;52.234;5.186;2023-04-07T07:05:55;13.52;;;3.55;;
72301;SDS011;60235;52.234;5.186;2023-04-07T07:08:22;17.20;;;3.90;;
72301;SDS011;60235;52.234;5.186;2023-04-07T07:10:48;11.63;;;3.63;;
72301;SDS011;60235;52.234;5.186;2023-04-07T07:13:14;11.60;;;3.42;;
72301;SDS011;60235;52.234;5.186;2023-04-07T07:15:40;13.52;;;4.10;;
72301;SDS011;60235;52.234;5.186;2023-04-07T07:18:06;15.70;;;3.20;;
72301;SDS011;60235;52.234;5.186;2023-04-07T07:20:32;16.52;;;3.63;;
72301;SDS011;60235;52.234;5.186;2023-04-07T07:22:58;13.60;;;3.30;;
72301;SDS011;60235;52.234;5.186;2023-04-07T07:25:24;12.45;;;3.38;;
72301;SDS011;60235;52.234;5.186;2023-04-07T07:27:51;10.90;;;3.05;;
72301;SDS011;60235;52.234;5.186;2023-04-07T07:30:20;16.75;;;3.15;;
72301;SDS011;60235;52.234;5.186;2023-04-07T07:32:46;12.02;;;2.83;;
72301;SDS011;60235;52.234;5.186;2023-04-07T07:35:13;15.15;;;2.90;;
72301;SDS011;60235;52.234;5.186;2023-04-07T07:37:39;16.15;;;3.63;;
72301;SDS011;60235;52.234;5.186;2023-04-07T07:40:05;10.18;;;2.65;;
72301;SDS011;60235;52.234;5.186;2023-04-07T07:42:31;10.02;;;2.45;;
72301;SDS011;60235;52.234;5.186;2023-04-07T07:44:57;9.90;;;2.28;;
72301;SDS011;60235;52.234;5.186;2023-04-07T07:47:24;10.80;;;2.45;;
72301;SDS011;60235;52.234;5.186;2023-04-07T07:49:50;11.48;;;2.65;;
72301;SDS011;60235;52.234;5.186;2023-04-07T07:52:16;11.90;;;2.50;;
72301;SDS011;60235;52.234;5.186;2023-04-07T07:54:43;6.28;;;2.05;;
72301;SDS011;60235;52.234;5.186;2023-04-07T07:57:09;11.05;;;2.50;;
72301;SDS011;60235;52.234;5.186;2023-04-07T07:59:35;9.90;;;2.38;;
72301;SDS011;60235;52.234;5.186;2023-04-07T08:02:01;10.45;;;2.60;;
72301;SDS011;60235;52.234;5.186;2023-04-07T08:04:27;9.23;;;2.53;;
72301;SDS011;60235;52.234;5.186;2023-04-07T08:06:53;11.38;;;2.90;;
72301;SDS011;60235;52.234;5.186;2023-04-07T08:09:19;11.43;;;2.63;;
72301;SDS011;60235;52.234;5.186;2023-04-07T08:11:45;12.07;;;2.60;;
72301;SDS011;60235;52.234;5.186;2023-04-07T08:14:15;13.55;;;2.85;;
72301;SDS011;60235;52.234;5.186;2023-04-07T08:16:41;16.35;;;4.90;;
72301;SDS011;60235;52.234;5.186;2023-04-07T08:19:07;17.08;;;3.50;;
72301;SDS011;60235;52.234;5.186;2023-04-07T08:21:37;18.50;;;3.10;;
72301;SDS011;60235;52.234;5.186;2023-04-07T08:24:03;14.85;;;3.88;;
72301;SDS011;60235;52.234;5.186;2023-04-07T08:26:29;13.80;;;4.22;;
72301;SDS011;60235;52.234;5.186;2023-04-07T08:28:55;11.65;;;3.42;;
72301;SDS011;60235;52.234;5.186;2023-04-07T08:31:22;8.98;;;2.50;;
72301;SDS011;60235;52.234;5.186;2023-04-07T08:33:48;12.40;;;2.65;;
72301;SDS011;60235;52.234;5.186;2023-04-07T08:36:18;10.10;;;2.40;;
72301;SDS011;60235;52.234;5.186;2023-04-07T08:38:44;10.65;;;2.88;;
72301;SDS011;60235;52.234;5.186;2023-04-07T08:41:11;9.07;;;2.60;;
72301;SDS011;60235;52.234;5.186;2023-04-07T08:43:37;9.32;;;2.40;;
72301;SDS011;60235;52.234;5.186;2023-04-07T08:46:04;13.57;;;2.42;;
72301;SDS011;60235;52.234;5.186;2023-04-07T08:48:30;9.77;;;2.13;;
72301;SDS011;60235;52.234;5.186;2023-04-07T08:51:03;10.45;;;2.22;;
72301;SDS011;60235;52.234;5.186;2023-04-07T08:53:32;7.90;;;2.10;;
72301;SDS011;60235;52.234;5.186;2023-04-07T08:56:00;12.75;;;3.10;;
72301;SDS011;60235;52.234;5.186;2023-04-07T08:58:27;11.98;;;2.85;;
72301;SDS011;60235;52.234;5.186;2023-04-07T09:00:53;10.82;;;2.35;;
72301;SDS011;60235;52.234;5.186;2023-04-07T09:03:19;11.32;;;2.90;;
72301;SDS011;60235;52.234;5.186;2023-04-07T09:05:45;8.02;;;2.03;;
72301;SDS011;60235;52.234;5.186;2023-04-07T09:08:12;11.80;;;2.88;;
72301;SDS011;60235;52.234;5.186;2023-04-07T09:10:38;6.63;;;2.10;;
72301;SDS011;60235;52.234;5.186;2023-04-07T09:13:04;10.65;;;2.00;;
72301;SDS011;60235;52.234;5.186;2023-04-07T09:15:30;6.70;;;1.70;;
72301;SDS011;60235;52.234;5.186;2023-04-07T09:17:57;9.88;;;1.63;;
72301;SDS011;60235;52.234;5.186;2023-04-07T09:20:23;7.43;;;1.80;;
72301;SDS011;60235;52.234;5.186;2023-04-07T09:22:49;13.70;;;2.00;;
72301;SDS011;60235;52.234;5.186;2023-04-07T09:25:22;9.68;;;2.03;;
72301;SDS011;60235;52.234;5.186;2023-04-07T09:27:57;11.27;;;1.73;;
72301;SDS011;60235;52.234;5.186;2023-04-07T09:30:24;8.77;;;1.70;;
72301;SDS011;60235;52.234;5.186;2023-04-07T09:32:50;7.68;;;1.65;;
72301;SDS011;60235;52.234;5.186;2023-04-07T09:35:16;6.22;;;1.42;;
72301;SDS011;60235;52.234;5.186;2023-04-07T09:37:42;8.02;;;1.90;;
72301;SDS011;60235;52.234;5.186;2023-04-07T09:40:08;11.68;;;3.05;;
72301;SDS011;60235;52.234;5.186;2023-04-07T09:42:43;9.07;;;2.20;;
72301;SDS011;60235;52.234;5.186;2023-04-07T09:45:09;11.98;;;2.30;;
72301;SDS011;60235;52.234;5.186;2023-04-07T09:47:36;9.38;;;2.13;;
72301;SDS011;60235;52.234;5.186;2023-04-07T09:50:02;7.07;;;2.00;;
72301;SDS011;60235;52.234;5.186;2023-04-07T09:52:50;7.32;;;1.75;;
72301;SDS011;60235;52.234;5.186;2023-04-07T09:55:22;8.57;;;1.60;;
72301;SDS011;60235;52.234;5.186;2023-04-07T09:57:51;6.65;;;1.90;;
72301;SDS011;60235;52.234;5.186;2023-04-07T10:00:19;10.20;;;2.65;;
72301;SDS011;60235;52.234;5.186;2023-04-07T10:02:45;11.02;;;2.08;;
72301;SDS011;60235;52.234;5.186;2023-04-07T10:05:12;6.93;;;1.90;;
72301;SDS011;60235;52.234;5.186;2023-04-07T10:07:38;8.10;;;2.20;;
72301;SDS011;60235;52.234;5.186;2023-04-07T10:10:04;8.57;;;2.28;;
72301;SDS011;60235;52.234;5.186;2023-04-07T10:12:33;10.90;;;1.83;;
72301;SDS011;60235;52.234;5.186;2023-04-07T10:14:59;7.57;;;1.77;;
72301;SDS011;60235;52.234;5.186;2023-04-07T10:17:28;9.07;;;1.83;;
72301;SDS011;60235;52.234;5.186;2023-04-07T10:19:56;10.85;;;2.40;;
72301;SDS011;60235;52.234;5.186;2023-04-07T10:22:23;8.30;;;1.73;;
72301;SDS011;60235;52.234;5.186;2023-04-07T10:24:53;10.10;;;2.33;;
72301;SDS011;60235;52.234;5.186;2023-04-07T10:27:21;12.23;;;3.20;;
72301;SDS011;60235;52.234;5.186;2023-04-07T10:29:48;8.35;;;1.63;;
72301;SDS011;60235;52.234;5.186;2023-04-07T10:32:14;9.73;;;2.45;;
72301;SDS011;60235;52.234;5.186;2023-04-07T10:37:14;8.77;;;1.73;;
72301;SDS011;60235;52.234;5.186;2023-04-07T10:39:42;6.57;;;2.40;;
72301;SDS011;60235;52.234;5.186;2023-04-07T10:45:00;8.15;;;2.13;;
72301;SDS011;60235;52.234;5.186;2023-04-07T10:47:27;7.57;;;1.83;;
72301;SDS011;60235;52.234;5.186;2023-04-07T10:53:03;10.15;;;2.10;;
72301;SDS011;60235;52.234;5.186;2023-04-07T10:55:30;7.00;;;3.10;;
72301;SDS011;60235;52.234;5.186;2023-04-07T11:00:41;7.45;;;1.63;;
72301;SDS011;60235;52.234;5.186;2023-04-07T11:03:11;6.85;;;1.40;;
72301;SDS011;60235;52.234;5.186;2023-04-07T11:05:38;7.60;;;1.40;;
72301;SDS011;60235;52.234;5.186;2023-04-07T11:08:04;5.18;;;1.58;;
72301;SDS011;60235;52.234;5.186;2023-04-07T11:10:32;5.03;;;1.13;;
72301;SDS011;60235;52.234;5.186;2023-04-07T11:13:02;5.25;;;1.45;;
72301;SDS011;60235;52.234;5.186;2023-04-07T11:15:28;6.30;;;1.20;;
72301;SDS011;60235;52.234;5.186;2023-04-07T11:18:04;5.50;;;1.50;;
72301;SDS011;60235;52.234;5.186;2023-04-07T11:20:44;7.20;;;1.25;;
72301;SDS011;60235;52.234;5.186;2023-04-07T11:23:11;7.18;;;1.35;;
72301;SDS011;60235;52.234;5.186;2023-04-07T11:25:37;6.18;;;1.30;;
72301;SDS011;60235;52.234;5.186;2023-04-07T11:28:03;10.02;;;1.70;;
72301;SDS011;60235;52.234;5.186;2023-04-07T11:30:29;5.82;;;1.13;;
72301;SDS011;60235;52.234;5.186;2023-04-07T11:32:55;6.57;;;1.80;;
72301;SDS011;60235;52.234;5.186;2023-04-07T11:35:22;8.00;;;1.60;;
72301;SDS011;60235;52.234;5.186;2023-04-07T11:37:48;8.25;;;1.60;;
72301;SDS011;60235;52.234;5.186;2023-04-07T11:40:29;5.63;;;1.60;;
72301;SDS011;60235;52.234;5.186;2023-04-07T11:42:57;9.93;;;1.70;;
72301;SDS011;60235;52.234;5.186;2023-04-07T11:45:23;6.38;;;1.52;;
72301;SDS011;60235;52.234;5.186;2023-04-07T11:47:49;10.77;;;1.70;;
72301;SDS011;60235;52.234;5.186;2023-04-07T11:50:15;6.03;;;1.60;;
72301;SDS011;60235;52.234;5.186;2023-04-07T11:52:45;7.38;;;1.40;;
72301;SDS011;60235;52.234;5.186;2023-04-07T11:55:21;10.23;;;1.55;;
72301;SDS011;60235;52.234;5.186;2023-04-07T11:57:50;6.38;;;1.75;;
72301;SDS011;60235;52.234;5.186;2023-04-07T12:00:16;8.50;;;1.80;;
72301;SDS011;60235;52.234;5.186;2023-04-07T12:02:43;8.93;;;1.73;;
72301;SDS011;60235;52.234;5.186;2023-04-07T12:05:09;11.13;;;1.88;;
72301;SDS011;60235;52.234;5.186;2023-04-07T12:07:35;9.38;;;2.17;;
72301;SDS011;60235;52.234;5.186;2023-04-07T12:10:21;10.23;;;2.00;;
72301;SDS011;60235;52.234;5.186;2023-04-07T12:12:47;6.00;;;1.60;;
72301;SDS011;60235;52.234;5.186;2023-04-07T12:15:14;9.68;;;1.90;;
72301;SDS011;60235;52.234;5.186;2023-04-07T12:17:44;7.35;;;1.88;;
72301;SDS011;60235;52.234;5.186;2023-04-07T12:20:11;9.60;;;2.00;;
72301;SDS011;60235;52.234;5.186;2023-04-07T12:22:37;6.30;;;1.85;;
72301;SDS011;60235;52.234;5.186;2023-04-07T12:25:03;7.80;;;2.30;;
72301;SDS011;60235;52.234;5.186;2023-04-07T12:27:29;10.05;;;2.28;;
72301;SDS011;60235;52.234;5.186;2023-04-07T12:29:55;10.15;;;2.35;;
72301;SDS011;60235;52.234;5.186;2023-04-07T12:32:21;13.25;;;2.63;;
72301;SDS011;60235;52.234;5.186;2023-04-07T12:34:47;8.20;;;2.13;;
72301;SDS011;60235;52.234;5.186;2023-04-07T12:37:13;9.20;;;2.20;;
72301;SDS011;60235;52.234;5.186;2023-04-07T12:39:40;9.32;;;2.00;;
72301;SDS011;60235;52.234;5.186;2023-04-07T12:42:06;7.43;;;2.00;;
72301;SDS011;60235;52.234;5.186;2023-04-07T12:44:35;8.88;;;2.47;;
72301;SDS011;60235;52.234;5.186;2023-04-07T12:47:01;6.35;;;1.75;;
72301;SDS011;60235;52.234;5.186;2023-04-07T12:49:27;11.95;;;2.47;;
72301;SDS011;60235;52.234;5.186;2023-04-07T12:51:53;11.32;;;1.80;;
72301;SDS011;60235;52.234;5.186;2023-04-07T12:54:19;9.27;;;1.77;;
72301;SDS011;60235;52.234;5.186;2023-04-07T12:56:46;6.57;;;1.60;;
72301;SDS011;60235;52.234;5.186;2023-04-07T12:59:12;9.70;;;1.95;;
72301;SDS011;60235;52.234;5.186;2023-04-07T13:01:38;9.95;;;2.28;;
72301;SDS011;60235;52.234;5.186;2023-04-07T13:04:04;7.55;;;2.20;;
72301;SDS011;60235;52.234;5.186;2023-04-07T13:06:30;8.85;;;2.15;;
72301;SDS011;60235;52.234;5.186;2023-04-07T13:08:57;9.15;;;2.10;;
72301;SDS011;60235;52.234;5.186;2023-04-07T13:11:23;6.25;;;1.90;;
72301;SDS011;60235;52.234;5.186;2023-04-07T13:13:49;8.85;;;2.28;;
72301;SDS011;60235;52.234;5.186;2023-04-07T13:16:15;9.98;;;2.20;;
72301;SDS011;60235;52.234;5.186;2023-04-07T13:18:41;10.93;;;2.20;;
72301;SDS011;60235;52.234;5.186;2023-04-07T13:21:08;7.22;;;1.85;;
72301;SDS011;60235;52.234;5.186;2023-04-07T13:23:34;9.43;;;2.25;;
72301;SDS011;60235;52.234;5.186;2023-04-07T13:26:00;8.77;;;2.20;;
72301;SDS011;60235;52.234;5.186;2023-04-07T13:28:26;8.38;;;2.33;;
72301;SDS011;60235;52.234;5.186;2023-04-07T13:30:52;8.13;;;3.85;;
72301;SDS011;60235;52.234;5.186;2023-04-07T13:33:18;9.68;;;2.42;;
72301;SDS011;60235;52.234;5.186;2023-04-07T13:35:45;10.77;;;3.60;;
72301;SDS011;60235;52.234;5.186;2023-04-07T13:38:10;12.23;;;3.95;;
72301;SDS011;60235;52.234;5.186;2023-04-07T13:40:36;16.90;;;3.60;;
72301;SDS011;60235;52.234;5.186;2023-04-07T13:43:02;11.40;;;2.83;;
72301;SDS011;60235;52.234;5.186;2023-04-07T13:45:28;10.52;;;3.20;;
72301;SDS011;60235;52.234;5.186;2023-04-07T13:47:55;11.50;;;2.92;;
72301;SDS011;60235;52.234;5.186;2023-04-07T13:50:21;10.70;;;2.85;;
72301;SDS011;60235;52.234;5.186;2023-04-07T13:52:47;12.40;;;3.28;;
72301;SDS011;60235;52.234;5.186;2023-04-07T13:55:13;11.13;;;2.63;;
72301;SDS011;60235;52.234;5.186;2023-04-07T13:57:39;13.63;;;3.03;;
72301;SDS011;60235;52.234;5.186;2023-04-07T14:00:06;14.48;;;3.13;;
72301;SDS011;60235;52.234;5.186;2023-04-07T14:02:32;11.80;;;3.45;;
72301;SDS011;60235;52.234;5.186;2023-04-07T14:04:58;9.90;;;2.60;;
72301;SDS011;60235;52.234;5.186;2023-04-07T14:07:24;7.97;;;2.88;;
72301;SDS011;60235;52.234;5.186;2023-04-07T14:09:50;10.43;;;3.17;;
72301;SDS011;60235;52.234;5.186;2023-04-07T14:12:18;18.08;;;6.47;;
72301;SDS011;60235;52.234;5.186;2023-04-07T14:14:45;13.32;;;4.20;;
72301;SDS011;60235;52.234;5.186;2023-04-07T14:17:16;17.50;;;4.35;;
72301;SDS011;60235;52.234;5.186;2023-04-07T14:19:42;12.63;;;3.30;;
72301;SDS011;60235;52.234;5.186;2023-04-07T14:22:08;10.80;;;3.40;;
72301;SDS011;60235;52.234;5.186;2023-04-07T14:24:34;9.93;;;2.70;;
72301;SDS011;60235;52.234;5.186;2023-04-07T14:27:01;7.68;;;3.22;;
72301;SDS011;60235;52.234;5.186;2023-04-07T14:29:28;13.00;;;4.20;;
72301;SDS011;60235;52.234;5.186;2023-04-07T14:31:54;15.85;;;3.88;;
72301;SDS011;60235;52.234;5.186;2023-04-07T14:34:20;15.13;;;4.70;;
72301;SDS011;60235;52.234;5.186;2023-04-07T14:36:53;9.25;;;3.50;;
72301;SDS011;60235;52.234;5.186;2023-04-07T14:39:19;12.63;;;3.78;;
72301;SDS011;60235;52.234;5.186;2023-04-07T14:41:46;10.23;;;3.38;;
72301;SDS011;60235;52.234;5.186;2023-04-07T14:44:12;9.27;;;3.42;;
72301;SDS011;60235;52.234;5.186;2023-04-07T14:46:38;11.45;;;3.95;;
72301;SDS011;60235;52.234;5.186;2023-04-07T14:49:05;14.50;;;3.90;;
72301;SDS011;60235;52.234;5.186;2023-04-07T14:51:31;11.65;;;3.95;;
72301;SDS011;60235;52.234;5.186;2023-04-07T14:53:58;13.50;;;4.05;;
72301;SDS011;60235;52.234;5.186;2023-04-07T14:56:24;11.05;;;3.50;;